Flight Briefing for CPX258

Departure Arrival
Grantley Adams International Airport (TBPB)
Click to view FAA NOTAMS
Princess Juliana International Airport (TNCM)
Click to view FAA NOTAMS
Departure Time Arrival Time
N/A N/A
Aircraft Distance
B767-300BDSF 365nm
Departure METAR Arrival METAR
TBPB 152100Z 10016KT 9999 SCT018 27/22 Q1014 NOSIG TNCM 152100Z 13012KT 100V170 9999 VCSH FEW018 BKN037 26/20 Q1015 NOSIG RMK A2998 ADJ SHWRS N / VIRGA SSE LGT HZ ALSEC
Suggested Route
BGI UA632 ANU UB520 ELOPO ULUBA1


View recent IFR Routes data
Notes



Charts and Procedures

Charts for TBPB
No chart available
Charts for TNCM
No chart available

Ventusky Weather